sensor_id;sensor_type;location;lat;lon;timestamp;P1;durP1;ratioP1;P2;durP2;ratioP2
39776;SDS011;25453;48.162;14.510;2023-06-10T00:02:26;3.40;;;1.55;;
39776;SDS011;25453;48.162;14.510;2023-06-10T00:04:54;4.28;;;2.05;;
39776;SDS011;25453;48.162;14.510;2023-06-10T00:07:22;2.30;;;1.60;;
39776;SDS011;25453;48.162;14.510;2023-06-10T00:09:49;5.20;;;2.50;;
39776;SDS011;25453;48.162;14.510;2023-06-10T00:12:17;3.33;;;1.83;;
39776;SDS011;25453;48.162;14.510;2023-06-10T00:14:44;7.25;;;2.08;;
39776;SDS011;25453;48.162;14.510;2023-06-10T00:17:11;3.15;;;1.95;;
39776;SDS011;25453;48.162;14.510;2023-06-10T00:19:39;3.50;;;1.92;;
39776;SDS011;25453;48.162;14.510;2023-06-10T00:22:07;3.42;;;2.03;;
39776;SDS011;25453;48.162;14.510;2023-06-10T00:24:37;3.38;;;2.05;;
39776;SDS011;25453;48.162;14.510;2023-06-10T00:27:05;4.15;;;2.47;;
39776;SDS011;25453;48.162;14.510;2023-06-10T00:29:34;3.05;;;1.80;;
39776;SDS011;25453;48.162;14.510;2023-06-10T00:32:01;3.90;;;2.13;;
39776;SDS011;25453;48.162;14.510;2023-06-10T00:34:29;3.35;;;1.90;;
39776;SDS011;25453;48.162;14.510;2023-06-10T00:36:56;3.80;;;2.08;;
39776;SDS011;25453;48.162;14.510;2023-06-10T00:39:23;3.72;;;1.92;;
39776;SDS011;25453;48.162;14.510;2023-06-10T00:41:50;3.75;;;2.00;;
39776;SDS011;25453;48.162;14.510;2023-06-10T00:44:19;4.85;;;2.38;;
39776;SDS011;25453;48.162;14.510;2023-06-10T00:46:46;5.00;;;2.72;;
39776;SDS011;25453;48.162;14.510;2023-06-10T00:49:16;3.33;;;2.28;;
39776;SDS011;25453;48.162;14.510;2023-06-10T00:51:44;3.60;;;2.08;;
39776;SDS011;25453;48.162;14.510;2023-06-10T00:54:11;3.55;;;2.10;;
39776;SDS011;25453;48.162;14.510;2023-06-10T00:56:40;3.33;;;2.08;;
39776;SDS011;25453;48.162;14.510;2023-06-10T00:59:09;4.18;;;2.03;;
39776;SDS011;25453;48.162;14.510;2023-06-10T01:01:37;3.67;;;2.05;;
39776;SDS011;25453;48.162;14.510;2023-06-10T01:04:05;3.25;;;1.80;;
39776;SDS011;25453;48.162;14.510;2023-06-10T01:06:36;3.85;;;2.08;;
39776;SDS011;25453;48.162;14.510;2023-06-10T01:11:47;3.28;;;1.77;;
39776;SDS011;25453;48.162;14.510;2023-06-10T01:14:35;4.28;;;2.53;;
39776;SDS011;25453;48.162;14.510;2023-06-10T01:17:03;4.05;;;2.10;;
39776;SDS011;25453;48.162;14.510;2023-06-10T01:19:32;3.38;;;1.95;;
39776;SDS011;25453;48.162;14.510;2023-06-10T01:22:00;4.13;;;2.50;;
39776;SDS011;25453;48.162;14.510;2023-06-10T01:24:27;3.92;;;2.13;;
39776;SDS011;25453;48.162;14.510;2023-06-10T01:26:55;3.72;;;2.03;;
39776;SDS011;25453;48.162;14.510;2023-06-10T01:32:06;3.70;;;2.17;;
39776;SDS011;25453;48.162;14.510;2023-06-10T01:34:39;4.97;;;2.45;;
39776;SDS011;25453;48.162;14.510;2023-06-10T01:37:09;3.55;;;2.22;;
39776;SDS011;25453;48.162;14.510;2023-06-10T01:39:40;3.25;;;2.03;;
39776;SDS011;25453;48.162;14.510;2023-06-10T01:42:09;3.47;;;1.85;;
39776;SDS011;25453;48.162;14.510;2023-06-10T01:44:41;4.47;;;2.42;;
39776;SDS011;25453;48.162;14.510;2023-06-10T01:47:08;4.45;;;2.25;;
39776;SDS011;25453;48.162;14.510;2023-06-10T01:49:35;3.40;;;2.10;;
39776;SDS011;25453;48.162;14.510;2023-06-10T01:52:03;3.67;;;2.10;;
39776;SDS011;25453;48.162;14.510;2023-06-10T01:54:30;4.30;;;2.08;;
39776;SDS011;25453;48.162;14.510;2023-06-10T01:56:57;3.72;;;1.75;;
39776;SDS011;25453;48.162;14.510;2023-06-10T01:59:24;3.58;;;1.80;;
39776;SDS011;25453;48.162;14.510;2023-06-10T02:01:51;4.13;;;2.17;;
39776;SDS011;25453;48.162;14.510;2023-06-10T02:04:19;2.85;;;1.73;;
39776;SDS011;25453;48.162;14.510;2023-06-10T02:06:46;5.93;;;2.05;;
39776;SDS011;25453;48.162;14.510;2023-06-10T02:09:13;4.18;;;2.13;;
39776;SDS011;25453;48.162;14.510;2023-06-10T02:11:40;3.63;;;2.05;;
39776;SDS011;25453;48.162;14.510;2023-06-10T02:14:07;4.68;;;2.45;;
39776;SDS011;25453;48.162;14.510;2023-06-10T02:16:34;3.65;;;2.20;;
39776;SDS011;25453;48.162;14.510;2023-06-10T02:19:02;3.60;;;2.20;;
39776;SDS011;25453;48.162;14.510;2023-06-10T02:21:32;3.67;;;2.25;;
39776;SDS011;25453;48.162;14.510;2023-06-10T02:24:00;5.00;;;2.28;;
39776;SDS011;25453;48.162;14.510;2023-06-10T02:26:28;4.50;;;2.47;;
39776;SDS011;25453;48.162;14.510;2023-06-10T02:28:55;4.45;;;2.80;;
39776;SDS011;25453;48.162;14.510;2023-06-10T02:31:22;4.00;;;2.10;;
39776;SDS011;25453;48.162;14.510;2023-06-10T02:33:51;4.18;;;2.25;;
39776;SDS011;25453;48.162;14.510;2023-06-10T02:36:19;3.88;;;2.33;;
39776;SDS011;25453;48.162;14.510;2023-06-10T02:38:48;4.88;;;2.45;;
39776;SDS011;25453;48.162;14.510;2023-06-10T02:41:15;5.07;;;2.50;;
39776;SDS011;25453;48.162;14.510;2023-06-10T02:43:42;3.78;;;2.42;;
39776;SDS011;25453;48.162;14.510;2023-06-10T02:46:09;4.00;;;2.15;;
39776;SDS011;25453;48.162;14.510;2023-06-10T02:48:42;2.92;;;1.83;;
39776;SDS011;25453;48.162;14.510;2023-06-10T02:51:10;3.50;;;2.15;;
39776;SDS011;25453;48.162;14.510;2023-06-10T02:53:37;4.55;;;2.35;;
39776;SDS011;25453;48.162;14.510;2023-06-10T02:56:04;4.28;;;2.05;;
39776;SDS011;25453;48.162;14.510;2023-06-10T02:58:31;4.30;;;2.13;;
39776;SDS011;25453;48.162;14.510;2023-06-10T03:00:59;4.45;;;2.30;;
39776;SDS011;25453;48.162;14.510;2023-06-10T03:03:27;3.92;;;2.28;;
39776;SDS011;25453;48.162;14.510;2023-06-10T03:05:54;3.67;;;2.28;;
39776;SDS011;25453;48.162;14.510;2023-06-10T03:08:23;5.32;;;2.30;;
39776;SDS011;25453;48.162;14.510;2023-06-10T03:10:51;4.93;;;2.53;;
39776;SDS011;25453;48.162;14.510;2023-06-10T03:13:18;3.78;;;2.20;;
39776;SDS011;25453;48.162;14.510;2023-06-10T03:15:45;3.42;;;2.17;;
39776;SDS011;25453;48.162;14.510;2023-06-10T03:18:13;5.53;;;2.65;;
39776;SDS011;25453;48.162;14.510;2023-06-10T03:20:40;3.88;;;2.10;;
39776;SDS011;25453;48.162;14.510;2023-06-10T03:23:09;5.07;;;2.60;;
39776;SDS011;25453;48.162;14.510;2023-06-10T03:25:36;4.43;;;2.17;;
39776;SDS011;25453;48.162;14.510;2023-06-10T03:28:03;4.82;;;2.58;;
39776;SDS011;25453;48.162;14.510;2023-06-10T03:30:30;4.55;;;2.50;;
39776;SDS011;25453;48.162;14.510;2023-06-10T03:32:58;5.43;;;2.75;;
39776;SDS011;25453;48.162;14.510;2023-06-10T03:35:25;3.35;;;2.15;;
39776;SDS011;25453;48.162;14.510;2023-06-10T03:37:53;4.20;;;2.28;;
39776;SDS011;25453;48.162;14.510;2023-06-10T03:40:20;4.55;;;2.10;;
39776;SDS011;25453;48.162;14.510;2023-06-10T03:42:47;4.00;;;2.35;;
39776;SDS011;25453;48.162;14.510;2023-06-10T03:45:14;3.40;;;2.20;;
39776;SDS011;25453;48.162;14.510;2023-06-10T03:47:41;2.38;;;1.60;;
39776;SDS011;25453;48.162;14.510;2023-06-10T03:50:10;4.63;;;2.05;;
39776;SDS011;25453;48.162;14.510;2023-06-10T03:52:37;3.95;;;1.90;;
39776;SDS011;25453;48.162;14.510;2023-06-10T03:55:05;4.10;;;2.30;;
39776;SDS011;25453;48.162;14.510;2023-06-10T03:57:33;3.25;;;1.90;;
39776;SDS011;25453;48.162;14.510;2023-06-10T04:00:00;3.88;;;2.08;;
39776;SDS011;25453;48.162;14.510;2023-06-10T04:02:33;4.28;;;2.45;;
39776;SDS011;25453;48.162;14.510;2023-06-10T04:05:01;4.13;;;1.95;;
39776;SDS011;25453;48.162;14.510;2023-06-10T04:07:28;4.00;;;1.80;;
39776;SDS011;25453;48.162;14.510;2023-06-10T04:09:57;3.25;;;1.98;;
39776;SDS011;25453;48.162;14.510;2023-06-10T04:12:24;3.53;;;2.03;;
39776;SDS011;25453;48.162;14.510;2023-06-10T04:14:51;3.95;;;2.47;;
39776;SDS011;25453;48.162;14.510;2023-06-10T04:17:18;4.78;;;2.22;;
39776;SDS011;25453;48.162;14.510;2023-06-10T04:19:45;3.38;;;1.98;;
39776;SDS011;25453;48.162;14.510;2023-06-10T04:22:12;3.60;;;2.08;;
39776;SDS011;25453;48.162;14.510;2023-06-10T04:24:40;3.63;;;2.13;;
39776;SDS011;25453;48.162;14.510;2023-06-10T04:27:08;3.70;;;2.38;;
39776;SDS011;25453;48.162;14.510;2023-06-10T04:29:35;4.20;;;2.13;;
39776;SDS011;25453;48.162;14.510;2023-06-10T04:32:03;3.33;;;1.83;;
39776;SDS011;25453;48.162;14.510;2023-06-10T04:34:35;3.03;;;1.65;;
39776;SDS011;25453;48.162;14.510;2023-06-10T04:37:03;3.17;;;1.70;;
39776;SDS011;25453;48.162;14.510;2023-06-10T04:39:30;4.38;;;2.00;;
39776;SDS011;25453;48.162;14.510;2023-06-10T04:41:59;4.20;;;2.10;;
39776;SDS011;25453;48.162;14.510;2023-06-10T04:44:27;3.35;;;1.73;;
39776;SDS011;25453;48.162;14.510;2023-06-10T04:46:54;3.17;;;1.73;;
39776;SDS011;25453;48.162;14.510;2023-06-10T04:49:22;4.10;;;2.25;;
39776;SDS011;25453;48.162;14.510;2023-06-10T04:51:49;2.67;;;1.65;;
39776;SDS011;25453;48.162;14.510;2023-06-10T04:54:17;2.97;;;1.90;;
39776;SDS011;25453;48.162;14.510;2023-06-10T04:56:44;3.05;;;1.67;;
39776;SDS011;25453;48.162;14.510;2023-06-10T04:59:12;3.55;;;2.08;;
39776;SDS011;25453;48.162;14.510;2023-06-10T05:01:41;3.53;;;1.83;;
39776;SDS011;25453;48.162;14.510;2023-06-10T05:04:08;2.70;;;1.75;;
39776;SDS011;25453;48.162;14.510;2023-06-10T05:06:35;2.63;;;1.80;;
39776;SDS011;25453;48.162;14.510;2023-06-10T05:09:03;3.15;;;2.05;;
39776;SDS011;25453;48.162;14.510;2023-06-10T05:11:30;3.40;;;2.00;;
39776;SDS011;25453;48.162;14.510;2023-06-10T05:13:57;4.78;;;2.30;;
39776;SDS011;25453;48.162;14.510;2023-06-10T05:16:25;2.67;;;1.52;;
39776;SDS011;25453;48.162;14.510;2023-06-10T05:18:52;3.53;;;1.95;;
39776;SDS011;25453;48.162;14.510;2023-06-10T05:21:19;3.40;;;1.70;;
39776;SDS011;25453;48.162;14.510;2023-06-10T05:23:47;3.60;;;2.10;;
39776;SDS011;25453;48.162;14.510;2023-06-10T05:26:14;2.72;;;1.65;;
39776;SDS011;25453;48.162;14.510;2023-06-10T05:28:42;4.25;;;1.95;;
39776;SDS011;25453;48.162;14.510;2023-06-10T05:31:09;3.20;;;1.75;;
39776;SDS011;25453;48.162;14.510;2023-06-10T05:33:37;4.75;;;2.30;;
39776;SDS011;25453;48.162;14.510;2023-06-10T05:36:04;3.13;;;1.80;;
39776;SDS011;25453;48.162;14.510;2023-06-10T05:38:32;4.65;;;2.25;;
39776;SDS011;25453;48.162;14.510;2023-06-10T05:40:59;4.13;;;2.35;;
39776;SDS011;25453;48.162;14.510;2023-06-10T05:43:26;4.00;;;1.95;;
39776;SDS011;25453;48.162;14.510;2023-06-10T05:45:53;4.50;;;1.90;;
39776;SDS011;25453;48.162;14.510;2023-06-10T05:48:20;4.20;;;1.92;;
39776;SDS011;25453;48.162;14.510;2023-06-10T05:50:47;3.78;;;1.85;;
39776;SDS011;25453;48.162;14.510;2023-06-10T05:53:15;3.95;;;1.70;;
39776;SDS011;25453;48.162;14.510;2023-06-10T05:55:42;3.58;;;2.15;;
39776;SDS011;25453;48.162;14.510;2023-06-10T05:58:11;2.75;;;1.50;;
39776;SDS011;25453;48.162;14.510;2023-06-10T06:00:39;3.63;;;1.95;;
39776;SDS011;25453;48.162;14.510;2023-06-10T06:03:07;2.40;;;1.77;;
39776;SDS011;25453;48.162;14.510;2023-06-10T06:05:35;3.38;;;1.50;;
39776;SDS011;25453;48.162;14.510;2023-06-10T06:08:05;2.83;;;1.83;;
39776;SDS011;25453;48.162;14.510;2023-06-10T06:10:32;2.47;;;1.27;;
39776;SDS011;25453;48.162;14.510;2023-06-10T06:13:00;3.00;;;1.67;;
39776;SDS011;25453;48.162;14.510;2023-06-10T06:15:28;3.05;;;1.77;;
39776;SDS011;25453;48.162;14.510;2023-06-10T06:17:55;3.08;;;1.70;;
39776;SDS011;25453;48.162;14.510;2023-06-10T06:20:22;2.72;;;1.70;;
39776;SDS011;25453;48.162;14.510;2023-06-10T06:22:50;2.75;;;1.40;;
39776;SDS011;25453;48.162;14.510;2023-06-10T06:25:17;2.10;;;1.48;;
39776;SDS011;25453;48.162;14.510;2023-06-10T06:27:44;3.45;;;1.85;;
39776;SDS011;25453;48.162;14.510;2023-06-10T06:30:12;2.45;;;1.40;;
39776;SDS011;25453;48.162;14.510;2023-06-10T06:32:39;2.17;;;1.25;;
39776;SDS011;25453;48.162;14.510;2023-06-10T06:35:06;3.65;;;1.23;;
39776;SDS011;25453;48.162;14.510;2023-06-10T06:37:35;2.50;;;1.33;;
39776;SDS011;25453;48.162;14.510;2023-06-10T06:40:03;2.33;;;1.23;;
39776;SDS011;25453;48.162;14.510;2023-06-10T06:42:30;2.95;;;1.40;;
39776;SDS011;25453;48.162;14.510;2023-06-10T06:44:57;1.88;;;1.30;;
39776;SDS011;25453;48.162;14.510;2023-06-10T06:47:25;2.83;;;1.50;;
39776;SDS011;25453;48.162;14.510;2023-06-10T06:49:53;6.38;;;2.38;;
39776;SDS011;25453;48.162;14.510;2023-06-10T06:52:20;4.70;;;2.30;;
39776;SDS011;25453;48.162;14.510;2023-06-10T06:54:48;3.90;;;2.28;;
39776;SDS011;25453;48.162;14.510;2023-06-10T06:57:15;3.50;;;1.90;;
39776;SDS011;25453;48.162;14.510;2023-06-10T06:59:43;3.53;;;2.15;;
39776;SDS011;25453;48.162;14.510;2023-06-10T07:02:10;4.18;;;2.13;;
39776;SDS011;25453;48.162;14.510;2023-06-10T07:04:37;3.85;;;1.90;;
39776;SDS011;25453;48.162;14.510;2023-06-10T07:07:06;3.28;;;1.90;;
39776;SDS011;25453;48.162;14.510;2023-06-10T07:09:35;4.22;;;1.95;;
39776;SDS011;25453;48.162;14.510;2023-06-10T07:12:02;3.75;;;1.98;;
39776;SDS011;25453;48.162;14.510;2023-06-10T07:14:29;3.65;;;2.25;;
39776;SDS011;25453;48.162;14.510;2023-06-10T07:16:58;3.05;;;1.77;;
39776;SDS011;25453;48.162;14.510;2023-06-10T07:19:25;3.00;;;2.00;;
39776;SDS011;25453;48.162;14.510;2023-06-10T07:21:52;2.67;;;1.40;;
39776;SDS011;25453;48.162;14.510;2023-06-10T07:24:20;3.92;;;1.95;;
39776;SDS011;25453;48.162;14.510;2023-06-10T07:26:47;5.65;;;2.75;;
39776;SDS011;25453;48.162;14.510;2023-06-10T07:29:14;4.28;;;2.40;;
39776;SDS011;25453;48.162;14.510;2023-06-10T07:31:41;3.33;;;1.95;;
39776;SDS011;25453;48.162;14.510;2023-06-10T07:34:08;4.13;;;2.30;;
39776;SDS011;25453;48.162;14.510;2023-06-10T07:36:36;3.42;;;2.30;;
39776;SDS011;25453;48.162;14.510;2023-06-10T07:39:03;5.05;;;2.53;;
39776;SDS011;25453;48.162;14.510;2023-06-10T07:41:31;5.70;;;2.55;;
39776;SDS011;25453;48.162;14.510;2023-06-10T07:43:58;3.92;;;2.22;;
39776;SDS011;25453;48.162;14.510;2023-06-10T07:46:25;3.63;;;2.15;;
39776;SDS011;25453;48.162;14.510;2023-06-10T07:48:54;4.70;;;2.65;;
39776;SDS011;25453;48.162;14.510;2023-06-10T07:51:21;4.63;;;2.85;;
39776;SDS011;25453;48.162;14.510;2023-06-10T07:53:48;4.57;;;2.90;;
39776;SDS011;25453;48.162;14.510;2023-06-10T07:56:18;5.28;;;2.85;;
39776;SDS011;25453;48.162;14.510;2023-06-10T07:58:48;5.22;;;3.28;;
39776;SDS011;25453;48.162;14.510;2023-06-10T08:01:15;4.38;;;2.50;;
39776;SDS011;25453;48.162;14.510;2023-06-10T08:03:42;5.85;;;2.90;;
39776;SDS011;25453;48.162;14.510;2023-06-10T08:06:11;4.95;;;2.60;;
39776;SDS011;25453;48.162;14.510;2023-06-10T08:08:38;5.40;;;2.63;;
39776;SDS011;25453;48.162;14.510;2023-06-10T08:11:12;4.80;;;2.63;;
39776;SDS011;25453;48.162;14.510;2023-06-10T08:13:39;4.68;;;2.42;;
39776;SDS011;25453;48.162;14.510;2023-06-10T08:16:06;4.68;;;2.70;;
39776;SDS011;25453;48.162;14.510;2023-06-10T08:18:34;4.00;;;2.80;;
39776;SDS011;25453;48.162;14.510;2023-06-10T08:21:01;5.30;;;2.92;;
39776;SDS011;25453;48.162;14.510;2023-06-10T08:23:28;4.93;;;3.05;;
39776;SDS011;25453;48.162;14.510;2023-06-10T08:25:56;4.28;;;2.63;;
39776;SDS011;25453;48.162;14.510;2023-06-10T08:28:24;6.75;;;3.20;;
39776;SDS011;25453;48.162;14.510;2023-06-10T08:30:51;6.85;;;3.55;;
39776;SDS011;25453;48.162;14.510;2023-06-10T08:33:22;7.00;;;4.47;;
39776;SDS011;25453;48.162;14.510;2023-06-10T08:35:49;7.57;;;3.85;;
39776;SDS011;25453;48.162;14.510;2023-06-10T08:38:16;5.55;;;3.45;;
39776;SDS011;25453;48.162;14.510;2023-06-10T08:40:43;5.15;;;3.28;;
39776;SDS011;25453;48.162;14.510;2023-06-10T08:43:15;5.40;;;3.53;;
39776;SDS011;25453;48.162;14.510;2023-06-10T08:45:48;5.70;;;3.55;;
39776;SDS011;25453;48.162;14.510;2023-06-10T08:48:17;6.53;;;3.58;;
39776;SDS011;25453;48.162;14.510;2023-06-10T08:50:47;5.55;;;3.10;;
39776;SDS011;25453;48.162;14.510;2023-06-10T08:53:17;4.35;;;2.60;;
39776;SDS011;25453;48.162;14.510;2023-06-10T08:55:48;5.57;;;3.30;;
39776;SDS011;25453;48.162;14.510;2023-06-10T08:58:19;6.35;;;3.28;;
39776;SDS011;25453;48.162;14.510;2023-06-10T09:00:47;4.78;;;2.70;;
39776;SDS011;25453;48.162;14.510;2023-06-10T09:03:14;4.75;;;2.78;;
39776;SDS011;25453;48.162;14.510;2023-06-10T09:05:41;5.85;;;3.15;;
39776;SDS011;25453;48.162;14.510;2023-06-10T09:08:10;5.72;;;3.33;;
39776;SDS011;25453;48.162;14.510;2023-06-10T09:10:37;6.68;;;3.13;;
39776;SDS011;25453;48.162;14.510;2023-06-10T09:13:05;4.60;;;2.58;;
39776;SDS011;25453;48.162;14.510;2023-06-10T09:15:32;4.93;;;2.65;;
39776;SDS011;25453;48.162;14.510;2023-06-10T09:17:59;5.40;;;3.28;;
39776;SDS011;25453;48.162;14.510;2023-06-10T09:20:27;6.25;;;3.42;;
39776;SDS011;25453;48.162;14.510;2023-06-10T09:22:54;5.10;;;3.03;;
39776;SDS011;25453;48.162;14.510;2023-06-10T09:25:28;5.13;;;2.88;;
39776;SDS011;25453;48.162;14.510;2023-06-10T09:28:02;5.22;;;3.17;;
39776;SDS011;25453;48.162;14.510;2023-06-10T09:30:33;4.80;;;3.08;;
39776;SDS011;25453;48.162;14.510;2023-06-10T09:33:02;6.38;;;3.47;;
39776;SDS011;25453;48.162;14.510;2023-06-10T09:35:44;7.80;;;4.70;;
39776;SDS011;25453;48.162;14.510;2023-06-10T09:38:13;6.32;;;3.65;;
39776;SDS011;25453;48.162;14.510;2023-06-10T09:40:49;7.28;;;4.30;;
39776;SDS011;25453;48.162;14.510;2023-06-10T09:45:50;7.43;;;4.50;;
39776;SDS011;25453;48.162;14.510;2023-06-10T09:48:21;6.90;;;3.97;;
39776;SDS011;25453;48.162;14.510;2023-06-10T09:50:50;7.65;;;4.45;;
39776;SDS011;25453;48.162;14.510;2023-06-10T09:53:17;6.10;;;3.58;;
39776;SDS011;25453;48.162;14.510;2023-06-10T09:55:45;6.95;;;4.13;;
39776;SDS011;25453;48.162;14.510;2023-06-10T09:58:12;8.90;;;4.45;;
39776;SDS011;25453;48.162;14.510;2023-06-10T10:00:40;8.27;;;4.20;;
39776;SDS011;25453;48.162;14.510;2023-06-10T10:03:07;7.97;;;4.30;;
39776;SDS011;25453;48.162;14.510;2023-06-10T10:05:35;6.68;;;3.90;;
39776;SDS011;25453;48.162;14.510;2023-06-10T10:08:02;6.30;;;4.35;;
39776;SDS011;25453;48.162;14.510;2023-06-10T10:10:30;6.03;;;4.00;;
39776;SDS011;25453;48.162;14.510;2023-06-10T10:12:57;6.75;;;3.10;;
39776;SDS011;25453;48.162;14.510;2023-06-10T10:15:25;6.65;;;3.50;;
39776;SDS011;25453;48.162;14.510;2023-06-10T10:18:08;6.82;;;3.90;;
39776;SDS011;25453;48.162;14.510;2023-06-10T10:20:41;6.38;;;3.65;;
39776;SDS011;25453;48.162;14.510;2023-06-10T10:23:14;4.75;;;2.97;;
39776;SDS011;25453;48.162;14.510;2023-06-10T10:26:07;5.75;;;3.45;;
39776;SDS011;25453;48.162;14.510;2023-06-10T10:28:41;5.45;;;3.40;;
39776;SDS011;25453;48.162;14.510;2023-06-10T10:31:18;6.00;;;3.53;;
39776;SDS011;25453;48.162;14.510;2023-06-10T10:36:28;6.05;;;3.78;;
39776;SDS011;25453;48.162;14.510;2023-06-10T10:38:55;5.70;;;3.83;;
39776;SDS011;25453;48.162;14.510;2023-06-10T10:41:25;5.85;;;3.72;;
39776;SDS011;25453;48.162;14.510;2023-06-10T10:43:53;7.18;;;3.85;;
39776;SDS011;25453;48.162;14.510;2023-06-10T10:46:21;5.32;;;3.35;;
39776;SDS011;25453;48.162;14.510;2023-06-10T10:48:51;6.45;;;3.85;;
39776;SDS011;25453;48.162;14.510;2023-06-10T10:51:22;5.45;;;3.55;;
39776;SDS011;25453;48.162;14.510;2023-06-10T10:56:37;6.43;;;3.70;;
39776;SDS011;25453;48.162;14.510;2023-06-10T10:59:04;5.93;;;3.75;;
39776;SDS011;25453;48.162;14.510;2023-06-10T11:01:42;5.38;;;3.33;;
39776;SDS011;25453;48.162;14.510;2023-06-10T11:04:13;6.72;;;3.42;;
39776;SDS011;25453;48.162;14.510;2023-06-10T11:06:54;5.82;;;3.47;;
39776;SDS011;25453;48.162;14.510;2023-06-10T11:09:26;6.60;;;3.65;;
39776;SDS011;25453;48.162;14.510;2023-06-10T11:11:58;5.03;;;3.30;;
39776;SDS011;25453;48.162;14.510;2023-06-10T11:14:27;5.25;;;2.90;;
39776;SDS011;25453;48.162;14.510;2023-06-10T11:16:56;5.63;;;3.47;;
39776;SDS011;25453;48.162;14.510;2023-06-10T11:19:34;6.50;;;3.47;;
39776;SDS011;25453;48.162;14.510;2023-06-10T11:22:04;6.82;;;3.25;;
39776;SDS011;25453;48.162;14.510;2023-06-10T11:24:33;4.93;;;3.20;;
39776;SDS011;25453;48.162;14.510;2023-06-10T11:27:19;5.75;;;3.53;;
39776;SDS011;25453;48.162;14.510;2023-06-10T11:30:40;4.78;;;3.28;;
39776;SDS011;25453;48.162;14.510;2023-06-10T11:32:51;4.90;;;2.95;;
39776;SDS011;25453;48.162;14.510;2023-06-10T11:35:26;4.72;;;2.95;;
39776;SDS011;25453;48.162;14.510;2023-06-10T11:37:54;4.25;;;2.90;;
39776;SDS011;25453;48.162;14.510;2023-06-10T11:40:21;5.35;;;3.08;;
39776;SDS011;25453;48.162;14.510;2023-06-10T11:42:48;5.88;;;3.13;;
39776;SDS011;25453;48.162;14.510;2023-06-10T11:45:16;4.70;;;2.88;;
39776;SDS011;25453;48.162;14.510;2023-06-10T11:47:56;5.53;;;3.08;;
39776;SDS011;25453;48.162;14.510;2023-06-10T11:50:33;5.18;;;3.50;;
39776;SDS011;25453;48.162;14.510;2023-06-10T11:53:01;5.82;;;3.80;;
39776;SDS011;25453;48.162;14.510;2023-06-10T11:58:19;6.82;;;4.20;;
39776;SDS011;25453;48.162;14.510;2023-06-10T12:00:50;7.00;;;4.28;;
39776;SDS011;25453;48.162;14.510;2023-06-10T12:03:20;6.00;;;3.83;;
39776;SDS011;25453;48.162;14.510;2023-06-10T12:05:59;6.22;;;4.22;;
39776;SDS011;25453;48.162;14.510;2023-06-10T12:08:31;5.97;;;3.80;;
39776;SDS011;25453;48.162;14.510;2023-06-10T12:11:02;5.18;;;3.10;;
39776;SDS011;25453;48.162;14.510;2023-06-10T12:13:29;6.32;;;3.85;;
39776;SDS011;25453;48.162;14.510;2023-06-10T12:16:05;5.60;;;3.00;;
39776;SDS011;25453;48.162;14.510;2023-06-10T12:18:36;4.65;;;2.80;;
39776;SDS011;25453;48.162;14.510;2023-06-10T12:21:14;5.30;;;3.42;;
39776;SDS011;25453;48.162;14.510;2023-06-10T12:24:05;4.72;;;3.00;;
39776;SDS011;25453;48.162;14.510;2023-06-10T12:29:14;3.45;;;2.05;;
39776;SDS011;25453;48.162;14.510;2023-06-10T12:32:03;4.47;;;2.30;;
39776;SDS011;25453;48.162;14.510;2023-06-10T12:34:37;4.28;;;2.60;;
39776;SDS011;25453;48.162;14.510;2023-06-10T12:37:12;3.92;;;2.15;;
39776;SDS011;25453;48.162;14.510;2023-06-10T12:39:40;3.35;;;2.13;;
39776;SDS011;25453;48.162;14.510;2023-06-10T12:42:09;3.85;;;2.45;;
39776;SDS011;25453;48.162;14.510;2023-06-10T12:44:40;4.97;;;2.58;;
39776;SDS011;25453;48.162;14.510;2023-06-10T12:47:10;7.00;;;3.05;;
39776;SDS011;25453;48.162;14.510;2023-06-10T12:49:41;4.95;;;2.72;;
39776;SDS011;25453;48.162;14.510;2023-06-10T12:52:08;4.18;;;2.70;;
39776;SDS011;25453;48.162;14.510;2023-06-10T12:54:36;4.60;;;2.97;;
39776;SDS011;25453;48.162;14.510;2023-06-10T12:57:03;6.78;;;3.05;;
39776;SDS011;25453;48.162;14.510;2023-06-10T12:59:31;4.68;;;2.97;;
39776;SDS011;25453;48.162;14.510;2023-06-10T13:01:58;3.65;;;2.30;;
39776;SDS011;25453;48.162;14.510;2023-06-10T13:04:26;5.18;;;2.75;;
39776;SDS011;25453;48.162;14.510;2023-06-10T13:06:53;4.05;;;2.42;;
39776;SDS011;25453;48.162;14.510;2023-06-10T13:09:21;5.35;;;2.80;;
39776;SDS011;25453;48.162;14.510;2023-06-10T13:11:48;4.65;;;2.50;;
39776;SDS011;25453;48.162;14.510;2023-06-10T13:14:15;3.95;;;2.08;;
39776;SDS011;25453;48.162;14.510;2023-06-10T13:16:42;4.70;;;2.60;;
39776;SDS011;25453;48.162;14.510;2023-06-10T13:19:11;3.53;;;2.00;;
39776;SDS011;25453;48.162;14.510;2023-06-10T13:21:38;4.50;;;2.35;;
39776;SDS011;25453;48.162;14.510;2023-06-10T13:24:06;4.57;;;2.75;;
39776;SDS011;25453;48.162;14.510;2023-06-10T13:26:34;4.50;;;2.75;;
39776;SDS011;25453;48.162;14.510;2023-06-10T13:29:01;4.40;;;2.60;;
39776;SDS011;25453;48.162;14.510;2023-06-10T13:31:28;4.20;;;2.33;;
39776;SDS011;25453;48.162;14.510;2023-06-10T13:33:55;5.00;;;2.72;;
39776;SDS011;25453;48.162;14.510;2023-06-10T13:36:22;4.75;;;2.55;;
39776;SDS011;25453;48.162;14.510;2023-06-10T13:38:49;6.60;;;2.85;;
39776;SDS011;25453;48.162;14.510;2023-06-10T13:41:17;4.40;;;2.17;;
39776;SDS011;25453;48.162;14.510;2023-06-10T13:43:44;3.78;;;2.08;;
39776;SDS011;25453;48.162;14.510;2023-06-10T13:46:11;3.42;;;2.10;;
39776;SDS011;25453;48.162;14.510;2023-06-10T13:48:38;5.07;;;2.05;;
39776;SDS011;25453;48.162;14.510;2023-06-10T13:51:05;4.15;;;2.40;;
39776;SDS011;25453;48.162;14.510;2023-06-10T13:53:33;3.30;;;1.88;;
39776;SDS011;25453;48.162;14.510;2023-06-10T13:56:00;4.88;;;2.38;;
39776;SDS011;25453;48.162;14.510;2023-06-10T13:58:28;3.58;;;2.13;;
39776;SDS011;25453;48.162;14.510;2023-06-10T14:00:55;3.90;;;2.13;;
39776;SDS011;25453;48.162;14.510;2023-06-10T14:03:22;3.05;;;1.85;;
39776;SDS011;25453;48.162;14.510;2023-06-10T14:05:50;4.07;;;2.10;;
39776;SDS011;25453;48.162;14.510;2023-06-10T14:08:17;3.60;;;2.10;;
39776;SDS011;25453;48.162;14.510;2023-06-10T14:10:44;2.33;;;1.52;;
39776;SDS011;25453;48.162;14.510;2023-06-10T14:13:12;3.42;;;1.77;;
39776;SDS011;25453;48.162;14.510;2023-06-10T14:15:39;3.55;;;1.75;;
39776;SDS011;25453;48.162;14.510;2023-06-10T14:18:06;3.33;;;1.83;;
39776;SDS011;25453;48.162;14.510;2023-06-10T14:20:33;3.28;;;1.70;;
39776;SDS011;25453;48.162;14.510;2023-06-10T14:23:00;2.67;;;1.70;;
39776;SDS011;25453;48.162;14.510;2023-06-10T14:25:27;2.60;;;1.50;;
39776;SDS011;25453;48.162;14.510;2023-06-10T14:27:55;3.17;;;1.67;;
39776;SDS011;25453;48.162;14.510;2023-06-10T14:30:22;2.65;;;1.65;;
39776;SDS011;25453;48.162;14.510;2023-06-10T14:32:49;2.67;;;1.58;;
39776;SDS011;25453;48.162;14.510;2023-06-10T14:35:16;3.10;;;1.63;;
39776;SDS011;25453;48.162;14.510;2023-06-10T14:37:44;3.10;;;1.60;;
39776;SDS011;25453;48.162;14.510;2023-06-10T14:40:11;2.67;;;1.35;;
39776;SDS011;25453;48.162;14.510;2023-06-10T14:42:38;2.33;;;1.33;;
39776;SDS011;25453;48.162;14.510;2023-06-10T14:45:06;2.17;;;1.23;;
39776;SDS011;25453;48.162;14.510;2023-06-10T14:47:34;1.70;;;1.00;;
39776;SDS011;25453;48.162;14.510;2023-06-10T14:50:01;2.22;;;1.30;;
39776;SDS011;25453;48.162;14.510;2023-06-10T14:52:28;3.13;;;1.42;;
39776;SDS011;25453;48.162;14.510;2023-06-10T14:54:56;2.78;;;1.60;;
39776;SDS011;25453;48.162;14.510;2023-06-10T14:57:23;3.90;;;1.90;;
39776;SDS011;25453;48.162;14.510;2023-06-10T14:59:50;3.17;;;1.70;;
39776;SDS011;25453;48.162;14.510;2023-06-10T15:02:17;3.45;;;1.83;;